Time;durP1;ratioP1;P1;durP2;ratioP2;P2;SDS_P1;SDS_P2;PMS_P1;PMS_P2;Temp;Humidity;BMP_temperature;BMP_pressure;BME280_temperature;BME280_humidity;BME280_pressure;Samples;Min_cycle;Max_cycle;Signal;HPM_P1;HPM_P2
2022/02/24 00:03:54;;;;;;;5.40;2.10;;;;;;;;;;5016817;28;20500;-81
2022/02/24 00:06:22;;;;;;;7.27;2.03;;;;;;;;;;5017590;28;21171;-80
2022/02/24 00:08:51;;;;;;;7.17;2.70;;;;;;;;;;5016781;28;20480;-80
2022/02/24 00:11:18;;;;;;;8.33;1.90;;;;;;;;;;5017975;28;20547;-80
2022/02/24 00:13:45;;;;;;;8.27;2.63;;;;;;;;;;5015473;28;20487;-79
2022/02/24 00:16:12;;;;;;;5.60;1.90;;;;;;;;;;5016218;28;21042;-81
2022/02/24 00:18:39;;;;;;;11.87;3.30;;;;;;;;;;5017095;28;20491;-81
2022/02/24 00:21:07;;;;;;;6.80;3.00;;;;;;;;;;5016151;28;20455;-80
2022/02/24 00:23:34;;;;;;;10.20;3.10;;;;;;;;;;5016106;28;20460;-81
2022/02/24 00:26:02;;;;;;;8.27;2.27;;;;;;;;;;5016747;28;20543;-81
2022/02/24 00:28:30;;;;;;;11.93;2.47;;;;;;;;;;5016622;28;20557;-81
2022/02/24 00:30:57;;;;;;;5.97;2.37;;;;;;;;;;5016816;28;20483;-80
2022/02/24 00:33:24;;;;;;;6.63;2.40;;;;;;;;;;5015329;28;20488;-81
2022/02/24 00:35:52;;;;;;;9.73;2.40;;;;;;;;;;5017024;28;20487;-80
2022/02/24 00:38:20;;;;;;;6.53;2.20;;;;;;;;;;5011265;28;20495;-81
2022/02/24 00:40:47;;;;;;;5.60;2.10;;;;;;;;;;5016717;28;20499;-81
2022/02/24 00:43:16;;;;;;;6.77;2.30;;;;;;;;;;5015946;28;20473;-81
2022/02/24 00:45:43;;;;;;;9.20;2.93;;;;;;;;;;5016449;28;20456;-81
2022/02/24 00:48:10;;;;;;;6.80;2.83;;;;;;;;;;5016239;28;20551;-81
2022/02/24 00:50:38;;;;;;;5.67;2.57;;;;;;;;;;5016026;28;20541;-81
2022/02/24 00:53:05;;;;;;;7.63;2.30;;;;;;;;;;5016310;28;20504;-81
2022/02/24 00:55:33;;;;;;;7.10;2.40;;;;;;;;;;5016300;28;20477;-81
2022/02/24 00:58:00;;;;;;;8.77;2.43;;;;;;;;;;5016259;28;20471;-81
2022/02/24 01:00:29;;;;;;;8.10;2.50;;;;;;;;;;5016679;28;20530;-81
2022/02/24 01:02:56;;;;;;;5.33;2.00;;;;;;;;;;5016150;28;20491;-81
2022/02/24 01:05:23;;;;;;;7.00;2.43;;;;;;;;;;5015778;28;20500;-81
2022/02/24 01:07:50;;;;;;;7.47;2.57;;;;;;;;;;5015819;28;20455;-81
2022/02/24 01:10:17;;;;;;;4.13;2.20;;;;;;;;;;5016472;28;20511;-80
2022/02/24 01:12:44;;;;;;;5.00;2.30;;;;;;;;;;5015332;28;20542;-80
2022/02/24 01:15:12;;;;;;;10.67;3.23;;;;;;;;;;5015417;28;20575;-81
2022/02/24 01:17:41;;;;;;;5.20;1.90;;;;;;;;;;5015144;28;20995;-80
2022/02/24 01:23:12;;;;;;;9.40;2.33;;;;;;;;;;5015086;28;20771;-80
2022/02/24 01:25:39;;;;;;;6.97;2.00;;;;;;;;;;5015560;28;20447;-81
2022/02/24 01:28:06;;;;;;;4.67;2.13;;;;;;;;;;5015372;28;20452;-80
2022/02/24 01:30:33;;;;;;;6.03;2.43;;;;;;;;;;5015380;28;20463;-81
2022/02/24 01:33:02;;;;;;;6.17;2.60;;;;;;;;;;5015305;28;20451;-79
2022/02/24 01:35:29;;;;;;;8.40;2.87;;;;;;;;;;5016695;28;20451;-82
2022/02/24 01:37:56;;;;;;;7.33;2.10;;;;;;;;;;5016085;28;20984;-82
2022/02/24 01:40:23;;;;;;;6.13;2.57;;;;;;;;;;5015813;28;20460;-81
2022/02/24 01:42:52;;;;;;;5.97;2.43;;;;;;;;;;5016293;28;20542;-82
2022/02/24 01:45:19;;;;;;;5.80;2.10;;;;;;;;;;5016384;28;20455;-82
2022/02/24 01:47:46;;;;;;;7.20;2.50;;;;;;;;;;5015882;28;20451;-81
2022/02/24 01:50:15;;;;;;;8.93;1.80;;;;;;;;;;5015295;28;20476;-82
2022/02/24 01:52:44;;;;;;;7.60;2.37;;;;;;;;;;5017159;28;20468;-81
2022/02/24 01:55:12;;;;;;;6.03;2.40;;;;;;;;;;5015896;28;20539;-79
2022/02/24 01:57:39;;;;;;;6.83;2.30;;;;;;;;;;5016481;28;20456;-82
2022/02/24 02:00:07;;;;;;;5.77;2.30;;;;;;;;;;5015804;28;20508;-82
2022/02/24 02:02:35;;;;;;;6.13;1.73;;;;;;;;;;5019687;28;20457;-81
2022/02/24 02:05:02;;;;;;;8.03;3.23;;;;;;;;;;5019235;28;20447;-79
2022/02/24 02:07:30;;;;;;;6.97;2.20;;;;;;;;;;5020229;28;20456;-82
2022/02/24 02:09:59;;;;;;;9.07;2.47;;;;;;;;;;5019413;28;20998;-80
2022/02/24 02:12:26;;;;;;;7.00;1.83;;;;;;;;;;5018878;28;20461;-81
2022/02/24 02:14:54;;;;;;;5.60;1.90;;;;;;;;;;5017853;28;20529;-81
2022/02/24 02:17:21;;;;;;;6.33;2.47;;;;;;;;;;5018248;28;20460;-81
2022/02/24 02:19:48;;;;;;;9.93;2.10;;;;;;;;;;5018620;28;20493;-81
2022/02/24 02:22:16;;;;;;;6.03;1.97;;;;;;;;;;5018195;28;20454;-81
2022/02/24 02:24:57;;;;;;;4.57;2.20;;;;;;;;;;5017705;28;21762;-81
2022/02/24 02:27:25;;;;;;;8.00;2.00;;;;;;;;;;5018458;28;20990;-81
2022/02/24 02:29:52;;;;;;;8.13;1.90;;;;;;;;;;5018133;28;20547;-81
2022/02/24 02:32:19;;;;;;;7.80;1.93;;;;;;;;;;5019211;28;20532;-81
2022/02/24 02:34:46;;;;;;;5.10;1.73;;;;;;;;;;5018227;28;20489;-82
2022/02/24 02:37:13;;;;;;;7.03;2.20;;;;;;;;;;5019253;28;21048;-82
2022/02/24 02:39:42;;;;;;;7.47;1.93;;;;;;;;;;5018668;28;20480;-82
2022/02/24 02:42:09;;;;;;;7.03;2.60;;;;;;;;;;5018546;28;20526;-81
2022/02/24 02:44:36;;;;;;;6.17;2.17;;;;;;;;;;5017893;28;20452;-81
2022/02/24 02:47:03;;;;;;;9.33;2.53;;;;;;;;;;5019004;28;20459;-82
2022/02/24 02:49:31;;;;;;;8.77;2.33;;;;;;;;;;5018197;28;20486;-82
2022/02/24 02:51:58;;;;;;;8.83;2.20;;;;;;;;;;5018807;28;20468;-81
2022/02/24 02:54:25;;;;;;;7.30;2.03;;;;;;;;;;5017285;28;20491;-82
2022/02/24 02:56:53;;;;;;;10.83;2.50;;;;;;;;;;5017676;28;20971;-82
2022/02/24 02:59:20;;;;;;;6.63;1.70;;;;;;;;;;5024625;28;20487;-80
2022/02/24 03:01:51;;;;;;;6.20;2.17;;;;;;;;;;5031247;28;20461;-81
2022/02/24 03:04:18;;;;;;;8.63;2.90;;;;;;;;;;5030719;28;20448;-81
2022/02/24 03:06:45;;;;;;;9.20;2.10;;;;;;;;;;5025524;28;20459;-81
2022/02/24 03:09:13;;;;;;;8.97;2.50;;;;;;;;;;5018412;28;20497;-82
2022/02/24 03:11:40;;;;;;;6.73;2.33;;;;;;;;;;5018208;28;20457;-82
2022/02/24 03:14:08;;;;;;;8.30;2.03;;;;;;;;;;5018038;28;20484;-81
2022/02/24 03:16:36;;;;;;;7.93;2.50;;;;;;;;;;5018382;28;20464;-81
2022/02/24 03:19:04;;;;;;;5.30;1.80;;;;;;;;;;5017709;28;20495;-81
2022/02/24 03:21:31;;;;;;;5.70;2.23;;;;;;;;;;5017808;28;20531;-81
2022/02/24 03:23:58;;;;;;;9.10;2.23;;;;;;;;;;5017283;28;20458;-79
2022/02/24 03:26:25;;;;;;;10.97;2.50;;;;;;;;;;5018348;28;20526;-80
2022/02/24 03:28:52;;;;;;;7.40;1.80;;;;;;;;;;5018263;28;20479;-81
2022/02/24 03:31:21;;;;;;;5.77;2.00;;;;;;;;;;5017652;28;20463;-82
2022/02/24 03:33:48;;;;;;;7.13;2.43;;;;;;;;;;5016963;28;20458;-81
2022/02/24 03:36:15;;;;;;;8.90;2.70;;;;;;;;;;5017524;28;20966;-82
2022/02/24 03:38:42;;;;;;;13.70;2.40;;;;;;;;;;5017354;28;20552;-82
2022/02/24 03:41:09;;;;;;;8.17;2.17;;;;;;;;;;5017700;28;20451;-82
2022/02/24 03:43:36;;;;;;;13.13;2.43;;;;;;;;;;5016389;28;20460;-82
2022/02/24 03:46:03;;;;;;;8.00;2.53;;;;;;;;;;5017705;28;20453;-82
2022/02/24 03:48:32;;;;;;;7.20;2.40;;;;;;;;;;5017248;28;20483;-81
2022/02/24 03:50:59;;;;;;;7.53;1.90;;;;;;;;;;5017179;28;20439;-81
2022/02/24 03:53:26;;;;;;;7.43;2.40;;;;;;;;;;5016776;28;20896;-82
2022/02/24 03:55:53;;;;;;;9.20;2.47;;;;;;;;;;5005363;28;20488;-81
2022/02/24 03:58:20;;;;;;;10.80;2.27;;;;;;;;;;5017518;28;20484;-81
2022/02/24 04:00:47;;;;;;;5.93;2.13;;;;;;;;;;5017407;28;20450;-80
2022/02/24 04:03:14;;;;;;;7.30;2.60;;;;;;;;;;5015956;28;20974;-81
2022/02/24 04:05:43;;;;;;;7.93;1.90;;;;;;;;;;5017153;28;20451;-82
2022/02/24 04:08:10;;;;;;;10.63;3.10;;;;;;;;;;5016672;28;20451;-81
2022/02/24 04:10:37;;;;;;;8.53;2.60;;;;;;;;;;5016904;28;20451;-81
2022/02/24 04:13:04;;;;;;;7.57;2.83;;;;;;;;;;5014384;28;20535;-82
2022/02/24 04:15:31;;;;;;;7.90;2.03;;;;;;;;;;5016885;28;20479;-81
2022/02/24 04:17:58;;;;;;;9.13;2.20;;;;;;;;;;5015993;28;20464;-79
2022/02/24 04:20:25;;;;;;;6.47;2.40;;;;;;;;;;5017254;28;20486;-81
2022/02/24 04:22:54;;;;;;;8.50;2.27;;;;;;;;;;5015779;28;20460;-80
2022/02/24 04:25:21;;;;;;;7.43;2.47;;;;;;;;;;5015785;28;20442;-80
2022/02/24 04:27:49;;;;;;;7.20;2.67;;;;;;;;;;5015963;28;20542;-81
2022/02/24 04:30:17;;;;;;;9.47;2.23;;;;;;;;;;5015995;28;20476;-81
2022/02/24 04:32:44;;;;;;;6.33;2.23;;;;;;;;;;5015551;28;20516;-81
2022/02/24 04:35:12;;;;;;;5.60;2.23;;;;;;;;;;5014963;28;20483;-81
2022/02/24 04:37:39;;;;;;;4.90;2.00;;;;;;;;;;5016028;28;20446;-81
2022/02/24 04:40:08;;;;;;;5.97;1.80;;;;;;;;;;5015930;28;21010;-81
2022/02/24 04:42:37;;;;;;;8.23;2.10;;;;;;;;;;5016085;28;20514;-83
2022/02/24 04:45:04;;;;;;;7.77;2.57;;;;;;;;;;5006680;28;20840;-82
2022/02/24 04:47:31;;;;;;;9.43;2.30;;;;;;;;;;5016212;28;20553;-81
2022/02/24 04:49:58;;;;;;;7.63;2.40;;;;;;;;;;5015966;28;20478;-81
2022/02/24 04:52:25;;;;;;;7.80;2.47;;;;;;;;;;5016585;28;20434;-81
2022/02/24 04:54:52;;;;;;;11.73;2.23;;;;;;;;;;5015709;28;20510;-81
2022/02/24 04:57:21;;;;;;;6.10;2.80;;;;;;;;;;5015695;28;20435;-82
2022/02/24 04:59:48;;;;;;;11.30;2.93;;;;;;;;;;5003591;28;20475;-82
2022/02/24 05:02:15;;;;;;;10.33;2.47;;;;;;;;;;5016095;28;20457;-82
2022/02/24 05:04:42;;;;;;;11.33;2.10;;;;;;;;;;5016328;28;20453;-82
2022/02/24 05:07:09;;;;;;;8.27;1.83;;;;;;;;;;5015599;28;20845;-81
2022/02/24 05:09:36;;;;;;;5.50;2.10;;;;;;;;;;5016050;28;20482;-80
2022/02/24 05:12:04;;;;;;;6.63;2.23;;;;;;;;;;5020496;28;20459;-81
2022/02/24 05:14:32;;;;;;;9.90;2.67;;;;;;;;;;5019017;28;20486;-82
2022/02/24 05:17:00;;;;;;;8.73;2.23;;;;;;;;;;5020295;28;20454;-81
2022/02/24 05:19:27;;;;;;;7.07;2.57;;;;;;;;;;5019821;28;20494;-82
2022/02/24 05:21:54;;;;;;;6.90;2.93;;;;;;;;;;5018298;28;20818;-81
2022/02/24 05:24:21;;;;;;;8.80;2.57;;;;;;;;;;5010203;28;20931;-79
2022/02/24 05:27:28;;;;;;;10.33;2.90;;;;;;;;;;5094226;27;20567;-83
2022/02/24 05:29:55;;;;;;;7.77;1.93;;;;;;;;;;5077827;28;20473;-83
2022/02/24 05:32:22;;;;;;;6.67;2.30;;;;;;;;;;5073594;28;20456;-83
2022/02/24 05:34:50;;;;;;;9.73;2.77;;;;;;;;;;5073217;28;20522;-83
2022/02/24 05:37:17;;;;;;;7.13;3.67;;;;;;;;;;5094918;28;20448;-83
2022/02/24 05:39:45;;;;;;;4.63;2.00;;;;;;;;;;5095101;28;20471;-83
2022/02/24 05:42:12;;;;;;;9.33;2.97;;;;;;;;;;5075129;28;20460;-83
2022/02/24 05:44:40;;;;;;;5.60;2.33;;;;;;;;;;5073293;28;20453;-83
2022/02/24 05:47:07;;;;;;;6.77;2.03;;;;;;;;;;5073573;28;20951;-80
2022/02/24 05:49:34;;;;;;;8.53;2.77;;;;;;;;;;5090608;28;20972;-82
2022/02/24 05:52:01;;;;;;;5.47;2.80;;;;;;;;;;5093750;28;20457;-82
2022/02/24 05:54:29;;;;;;;8.77;2.93;;;;;;;;;;5077473;28;20452;-82
2022/02/24 05:56:56;;;;;;;11.30;3.60;;;;;;;;;;5073829;28;20445;-83
2022/02/24 05:59:24;;;;;;;9.80;2.33;;;;;;;;;;5074269;28;20460;-83
2022/02/24 06:01:52;;;;;;;8.13;2.70;;;;;;;;;;5073271;28;20452;-83
2022/02/24 06:04:19;;;;;;;6.20;2.27;;;;;;;;;;5072812;28;20438;-83
2022/02/24 06:06:46;;;;;;;7.80;2.23;;;;;;;;;;5073236;28;20869;-84
2022/02/24 06:09:13;;;;;;;6.93;2.93;;;;;;;;;;5092743;28;20474;-83
2022/02/24 06:11:40;;;;;;;7.83;2.83;;;;;;;;;;5092962;28;20958;-83
2022/02/24 06:14:08;;;;;;;6.37;1.90;;;;;;;;;;5079849;28;20823;-83
2022/02/24 06:16:35;;;;;;;8.37;2.70;;;;;;;;;;5073929;28;20474;-83
2022/02/24 06:19:03;;;;;;;10.57;2.30;;;;;;;;;;5073472;28;20479;-83
2022/02/24 06:21:30;;;;;;;12.23;2.60;;;;;;;;;;5072857;28;20952;-83
2022/02/24 06:23:57;;;;;;;8.20;2.33;;;;;;;;;;5088654;28;20455;-82
2022/02/24 06:26:24;;;;;;;5.63;1.80;;;;;;;;;;5053488;28;20561;-82
2022/02/24 06:28:51;;;;;;;8.90;2.30;;;;;;;;;;5052850;28;21094;-83
2022/02/24 06:31:18;;;;;;;6.10;2.20;;;;;;;;;;5053099;28;20449;-83
2022/02/24 06:33:46;;;;;;;6.60;2.23;;;;;;;;;;5068019;28;20470;-83
2022/02/24 06:36:14;;;;;;;6.67;2.40;;;;;;;;;;5072760;28;20447;-82
2022/02/24 06:38:41;;;;;;;5.10;1.60;;;;;;;;;;5078575;28;20475;-83
2022/02/24 06:41:08;;;;;;;6.23;1.63;;;;;;;;;;5080159;28;20820;-82
2022/02/24 06:43:35;;;;;;;5.83;2.10;;;;;;;;;;5077861;28;20458;-82
2022/02/24 06:46:02;;;;;;;6.17;2.13;;;;;;;;;;5059781;28;20580;-82
2022/02/24 06:48:30;;;;;;;11.63;2.50;;;;;;;;;;5060328;28;20453;-84
2022/02/24 06:50:57;;;;;;;6.00;1.50;;;;;;;;;;5056402;28;20970;-81
2022/02/24 06:53:25;;;;;;;6.93;2.00;;;;;;;;;;5063994;28;20462;-82
2022/02/24 06:55:52;;;;;;;9.00;2.70;;;;;;;;;;5057763;28;20443;-82
2022/02/24 06:58:19;;;;;;;14.00;4.87;;;;;;;;;;5058626;28;20481;-83
2022/02/24 07:00:46;;;;;;;7.73;2.40;;;;;;;;;;5055736;28;20469;-82
2022/02/24 07:03:13;;;;;;;12.20;2.00;;;;;;;;;;5057311;28;20455;-82
2022/02/24 07:05:40;;;;;;;6.30;1.87;;;;;;;;;;5054108;28;20464;-81
2022/02/24 07:08:08;;;;;;;5.93;1.87;;;;;;;;;;5053031;28;20461;-82
2022/02/24 07:10:36;;;;;;;7.00;1.90;;;;;;;;;;5061797;28;20820;-81
2022/02/24 07:13:03;;;;;;;4.80;1.70;;;;;;;;;;5063640;28;20460;-81
2022/02/24 07:15:30;;;;;;;5.17;1.83;;;;;;;;;;5060009;28;20458;-81
2022/02/24 07:17:57;;;;;;;5.40;1.53;;;;;;;;;;5065285;28;20482;-80
2022/02/24 07:20:24;;;;;;;5.57;1.87;;;;;;;;;;5054381;28;20522;-81
2022/02/24 07:22:52;;;;;;;6.80;1.97;;;;;;;;;;5058584;28;20476;-79
2022/02/24 07:25:19;;;;;;;9.00;1.90;;;;;;;;;;5064736;28;21859;-80
2022/02/24 07:27:48;;;;;;;6.20;1.70;;;;;;;;;;5065373;28;20556;-80
2022/02/24 07:30:15;;;;;;;5.33;1.97;;;;;;;;;;5065582;28;20479;-82
2022/02/24 07:32:43;;;;;;;9.20;1.77;;;;;;;;;;5053273;28;20840;-82
2022/02/24 07:35:10;;;;;;;2.80;1.50;;;;;;;;;;5053160;28;20448;-80
2022/02/24 07:37:38;;;;;;;5.17;1.70;;;;;;;;;;5052571;28;20457;-81
2022/02/24 07:40:05;;;;;;;5.90;1.93;;;;;;;;;;5057333;28;20482;-81
2022/02/24 07:42:34;;;;;;;4.67;1.60;;;;;;;;;;5051543;28;20535;-81
2022/02/24 07:45:04;;;;;;;5.60;1.50;;;;;;;;;;5055217;28;20487;-81
2022/02/24 07:47:31;;;;;;;5.47;1.87;;;;;;;;;;5055346;28;20484;-83
2022/02/24 07:49:59;;;;;;;7.60;2.47;;;;;;;;;;5053980;28;20473;-81
2022/02/24 07:52:26;;;;;;;4.30;1.40;;;;;;;;;;5053973;28;20523;-81
2022/02/24 07:54:54;;;;;;;6.53;2.50;;;;;;;;;;5054740;28;20458;-81
2022/02/24 07:57:22;;;;;;;6.23;2.20;;;;;;;;;;5055137;28;20461;-81
2022/02/24 07:59:49;;;;;;;7.13;2.37;;;;;;;;;;5056293;28;20473;-81
2022/02/24 08:02:17;;;;;;;6.73;1.40;;;;;;;;;;5053989;28;20895;-81
2022/02/24 08:04:45;;;;;;;5.10;1.47;;;;;;;;;;5053359;28;20466;-80
2022/02/24 08:07:12;;;;;;;9.90;2.03;;;;;;;;;;5052708;28;20517;-81
2022/02/24 08:09:39;;;;;;;5.50;1.30;;;;;;;;;;5056226;28;21970;-82
2022/02/24 08:14:52;;;;;;;7.80;1.70;;;;;;;;;;5057667;28;20520;-82
2022/02/24 08:17:21;;;;;;;4.87;2.20;;;;;;;;;;5057297;28;20455;-82
2022/02/24 08:19:49;;;;;;;7.20;1.83;;;;;;;;;;5056536;28;20559;-81
2022/02/24 08:22:16;;;;;;;5.13;1.60;;;;;;;;;;5061326;28;20459;-81
2022/02/24 08:24:44;;;;;;;7.30;1.60;;;;;;;;;;5060450;28;20959;-81
2022/02/24 08:27:11;;;;;;;4.77;1.90;;;;;;;;;;5053359;28;20513;-82
2022/02/24 08:29:38;;;;;;;4.13;2.00;;;;;;;;;;5056340;28;20476;-81
2022/02/24 08:32:06;;;;;;;4.10;1.60;;;;;;;;;;5053395;28;20467;-81
2022/02/24 08:34:34;;;;;;;6.50;1.63;;;;;;;;;;5058134;28;20458;-79
2022/02/24 08:37:01;;;;;;;5.73;1.40;;;;;;;;;;5050455;28;20859;-80
2022/02/24 08:39:28;;;;;;;6.07;1.60;;;;;;;;;;5059294;28;20973;-81
2022/02/24 08:41:55;;;;;;;5.50;2.53;;;;;;;;;;5053198;28;20463;-81
2022/02/24 08:44:22;;;;;;;8.23;1.63;;;;;;;;;;5053321;28;22287;-81
2022/02/24 08:46:50;;;;;;;6.27;1.60;;;;;;;;;;5054142;28;20484;-81
2022/02/24 08:49:17;;;;;;;6.23;1.60;;;;;;;;;;5055606;28;20478;-81
2022/02/24 08:51:45;;;;;;;6.00;1.80;;;;;;;;;;5056364;28;20439;-82
2022/02/24 08:54:14;;;;;;;6.10;2.33;;;;;;;;;;5055690;28;20459;-81
2022/02/24 08:56:41;;;;;;;5.90;1.60;;;;;;;;;;5056193;28;20523;-82
2022/02/24 08:59:09;;;;;;;5.10;1.63;;;;;;;;;;5058326;28;20510;-81
2022/02/24 09:01:36;;;;;;;4.70;1.77;;;;;;;;;;5067158;28;20951;-81
2022/02/24 09:04:03;;;;;;;6.17;1.90;;;;;;;;;;5065021;28;20458;-83
2022/02/24 09:06:30;;;;;;;10.40;2.40;;;;;;;;;;5059985;28;20852;-81
2022/02/24 09:08:58;;;;;;;9.40;1.90;;;;;;;;;;5053479;28;20481;-80
2022/02/24 09:11:25;;;;;;;6.00;2.13;;;;;;;;;;5035715;28;20908;-81
2022/02/24 09:13:52;;;;;;;6.67;2.30;;;;;;;;;;5040407;28;20457;-81
2022/02/24 09:16:20;;;;;;;10.83;2.57;;;;;;;;;;5048246;28;20458;-81
2022/02/24 09:18:48;;;;;;;5.07;1.60;;;;;;;;;;5045232;28;21030;-78
2022/02/24 09:21:15;;;;;;;7.67;1.93;;;;;;;;;;5051145;28;20789;-81
2022/02/24 09:23:42;;;;;;;3.60;1.70;;;;;;;;;;5054367;28;20442;-82
2022/02/24 09:26:11;;;;;;;5.10;1.73;;;;;;;;;;5052316;28;20466;-79
2022/02/24 09:28:39;;;;;;;7.53;1.50;;;;;;;;;;5055914;28;20541;-81
2022/02/24 09:31:06;;;;;;;5.63;1.70;;;;;;;;;;5054425;28;20435;-81
2022/02/24 09:33:33;;;;;;;4.23;1.30;;;;;;;;;;5057145;28;20450;-81
2022/02/24 09:36:01;;;;;;;4.57;1.43;;;;;;;;;;5057548;28;20475;-81
2022/02/24 09:38:28;;;;;;;4.83;1.53;;;;;;;;;;5057600;28;20565;-81
2022/02/24 09:40:56;;;;;;;6.37;1.83;;;;;;;;;;5057936;28;20492;-81
2022/02/24 09:43:27;;;;;;;6.63;1.97;;;;;;;;;;5056482;28;20477;-82
2022/02/24 09:45:58;;;;;;;9.63;2.50;;;;;;;;;;5057648;28;20448;-81
2022/02/24 09:48:29;;;;;;;8.00;2.10;;;;;;;;;;5057596;28;20534;-80
2022/02/24 09:50:56;;;;;;;6.77;1.90;;;;;;;;;;5072202;28;20451;-81
2022/02/24 09:53:23;;;;;;;5.30;1.20;;;;;;;;;;5051594;28;20458;-81
2022/02/24 09:55:51;;;;;;;3.77;1.90;;;;;;;;;;5055340;28;20946;-81
2022/02/24 09:58:24;;;;;;;11.17;2.00;;;;;;;;;;5067085;28;20450;-81
2022/02/24 10:00:53;;;;;;;6.83;1.93;;;;;;;;;;5061270;28;20550;-80
2022/02/24 10:03:30;;;;;;;3.00;1.50;;;;;;;;;;5048166;28;20454;-81
2022/02/24 10:05:57;;;;;;;6.83;1.83;;;;;;;;;;5067768;28;20926;-80
2022/02/24 10:08:29;;;;;;;8.20;2.20;;;;;;;;;;5077913;28;20495;-81
2022/02/24 10:10:57;;;;;;;5.00;1.70;;;;;;;;;;5057344;28;20440;-81
2022/02/24 10:13:25;;;;;;;6.30;1.87;;;;;;;;;;5073664;28;20469;-81
2022/02/24 10:15:57;;;;;;;5.27;2.23;;;;;;;;;;5070149;28;20451;-81
2022/02/24 10:18:28;;;;;;;6.10;2.23;;;;;;;;;;5067209;28;20471;-80
2022/02/24 10:20:58;;;;;;;6.73;2.40;;;;;;;;;;5086011;28;20516;-80
2022/02/24 10:23:32;;;;;;;6.77;2.20;;;;;;;;;;5068685;28;20444;-80
2022/02/24 10:26:01;;;;;;;4.87;1.60;;;;;;;;;;5083005;28;20462;-80
2022/02/24 10:28:30;;;;;;;5.77;2.17;;;;;;;;;;5076018;28;20483;-81
2022/02/24 10:30:58;;;;;;;5.57;2.20;;;;;;;;;;5071049;28;20444;-79
2022/02/24 10:33:26;;;;;;;9.00;2.37;;;;;;;;;;5079808;28;20451;-81
2022/02/24 10:35:53;;;;;;;5.17;1.90;;;;;;;;;;5068195;28;20933;-81
2022/02/24 10:38:20;;;;;;;7.83;2.43;;;;;;;;;;5068352;28;20475;-80
2022/02/24 10:40:48;;;;;;;7.80;2.50;;;;;;;;;;5068154;28;20522;-80
2022/02/24 10:43:17;;;;;;;8.33;2.27;;;;;;;;;;5068977;28;20569;-81
2022/02/24 10:45:45;;;;;;;6.73;2.20;;;;;;;;;;5063965;28;20479;-81
2022/02/24 10:48:13;;;;;;;6.50;2.37;;;;;;;;;;5067345;28;20470;-81
2022/02/24 10:50:55;;;;;;;7.70;2.80;;;;;;;;;;5061784;28;20462;-81
2022/02/24 10:53:23;;;;;;;14.40;2.83;;;;;;;;;;5066787;28;20470;-80
2022/02/24 10:55:54;;;;;;;6.27;2.77;;;;;;;;;;5053525;28;20444;-81
2022/02/24 10:58:21;;;;;;;5.37;1.63;;;;;;;;;;5060161;28;20467;-80
2022/02/24 11:00:48;;;;;;;8.20;2.10;;;;;;;;;;5063883;28;20446;-80
2022/02/24 11:03:17;;;;;;;5.70;1.70;;;;;;;;;;5062360;28;20858;-82
2022/02/24 11:05:44;;;;;;;7.27;2.20;;;;;;;;;;5059220;28;20471;-82
2022/02/24 11:08:12;;;;;;;7.43;2.13;;;;;;;;;;5061280;28;20481;-82
2022/02/24 11:10:39;;;;;;;9.63;1.70;;;;;;;;;;5064326;28;20485;-81
2022/02/24 11:13:07;;;;;;;4.63;1.80;;;;;;;;;;5078837;28;20444;-81
2022/02/24 11:15:38;;;;;;;8.37;2.07;;;;;;;;;;5060492;28;20455;-81
2022/02/24 11:18:05;;;;;;;4.30;1.93;;;;;;;;;;5059001;28;20448;-81
2022/02/24 11:20:34;;;;;;;4.90;1.93;;;;;;;;;;5068512;28;20466;-80
2022/02/24 11:23:02;;;;;;;6.80;3.73;;;;;;;;;;5058619;28;20473;-81
2022/02/24 11:25:31;;;;;;;3.50;1.57;;;;;;;;;;5059604;28;20463;-81
2022/02/24 11:27:59;;;;;;;10.53;2.33;;;;;;;;;;5058596;28;20551;-80
2022/02/24 11:30:28;;;;;;;4.60;1.97;;;;;;;;;;5069852;28;20484;-81
2022/02/24 11:32:55;;;;;;;3.90;1.77;;;;;;;;;;5067080;28;20465;-81
2022/02/24 11:35:25;;;;;;;7.77;1.70;;;;;;;;;;5068332;28;20465;-81
2022/02/24 11:37:56;;;;;;;7.03;1.70;;;;;;;;;;5057376;28;20452;-82
2022/02/24 11:40:24;;;;;;;4.27;1.37;;;;;;;;;;5061983;28;20503;-81
2022/02/24 11:43:02;;;;;;;9.37;2.07;;;;;;;;;;5081322;28;20564;-81
2022/02/24 11:45:31;;;;;;;4.87;1.70;;;;;;;;;;5053360;28;20631;-81
2022/02/24 11:47:59;;;;;;;5.30;1.50;;;;;;;;;;5057195;28;20565;-81
2022/02/24 11:50:30;;;;;;;5.90;1.50;;;;;;;;;;5056374;28;20460;-81
2022/02/24 11:52:59;;;;;;;5.30;1.83;;;;;;;;;;5055520;28;20450;-79
2022/02/24 11:55:45;;;;;;;4.73;1.97;;;;;;;;;;5056987;28;20463;-81
2022/02/24 11:58:30;;;;;;;4.37;1.90;;;;;;;;;;5052627;28;20447;-79
2022/02/24 12:01:16;;;;;;;4.07;2.30;;;;;;;;;;5027729;28;20560;-81
2022/02/24 12:03:53;;;;;;;4.60;2.40;;;;;;;;;;5057554;28;20529;-81
2022/02/24 12:06:21;;;;;;;4.73;2.00;;;;;;;;;;5059753;28;20546;-80
2022/02/24 12:09:09;;;;;;;4.17;1.50;;;;;;;;;;5050264;28;20493;-80
2022/02/24 12:11:38;;;;;;;5.23;2.00;;;;;;;;;;5061301;28;20461;-80
2022/02/24 12:14:09;;;;;;;8.33;2.50;;;;;;;;;;5062758;28;20487;-82
2022/02/24 12:16:36;;;;;;;5.50;2.50;;;;;;;;;;5068578;28;20531;-82
2022/02/24 12:19:03;;;;;;;7.63;2.20;;;;;;;;;;5056974;28;20835;-82
2022/02/24 12:21:31;;;;;;;7.17;2.07;;;;;;;;;;5059324;28;20455;-83
2022/02/24 12:23:59;;;;;;;7.53;1.90;;;;;;;;;;5058896;28;20465;-81
2022/02/24 12:26:42;;;;;;;4.70;2.00;;;;;;;;;;5063401;28;20474;-81
2022/02/24 12:29:18;;;;;;;5.50;2.60;;;;;;;;;;5064653;28;20489;-79
2022/02/24 12:31:46;;;;;;;6.23;3.53;;;;;;;;;;5068448;28;20449;-80
2022/02/24 12:34:13;;;;;;;6.50;1.93;;;;;;;;;;5056501;28;20452;-81
2022/02/24 12:36:40;;;;;;;7.97;2.60;;;;;;;;;;5068379;28;20444;-82
2022/02/24 12:39:07;;;;;;;4.63;1.50;;;;;;;;;;5061384;28;20474;-81
2022/02/24 12:41:34;;;;;;;4.73;3.43;;;;;;;;;;5063136;28;20809;-80
2022/02/24 12:44:03;;;;;;;5.83;2.00;;;;;;;;;;5064784;28;20448;-81
2022/02/24 12:46:30;;;;;;;6.03;2.77;;;;;;;;;;5074963;28;20457;-81
2022/02/24 12:48:57;;;;;;;5.77;2.90;;;;;;;;;;5084925;28;20845;-81
2022/02/24 12:51:24;;;;;;;5.50;2.20;;;;;;;;;;5080712;28;20482;-81
2022/02/24 12:53:51;;;;;;;11.07;4.30;;;;;;;;;;5065281;28;20429;-82
2022/02/24 12:56:19;;;;;;;7.70;2.63;;;;;;;;;;5064626;28;20479;-82
2022/02/24 12:58:46;;;;;;;7.03;1.93;;;;;;;;;;5065224;28;20796;-82
2022/02/24 13:01:15;;;;;;;5.73;2.33;;;;;;;;;;5066059;28;20475;-81
2022/02/24 13:03:42;;;;;;;7.40;3.40;;;;;;;;;;5063726;28;20457;-82
2022/02/24 13:06:10;;;;;;;8.73;3.23;;;;;;;;;;5066277;28;20456;-81
2022/02/24 13:11:23;;;;;;;5.00;2.00;;;;;;;;;;5066633;28;20474;-79
2022/02/24 13:13:51;;;;;;;7.73;2.20;;;;;;;;;;5053123;28;20456;-81
2022/02/24 13:16:20;;;;;;;6.63;1.80;;;;;;;;;;5057337;28;20464;-81
2022/02/24 13:18:48;;;;;;;7.13;2.00;;;;;;;;;;5066970;28;20462;-80
2022/02/24 13:21:16;;;;;;;6.53;1.80;;;;;;;;;;5079054;28;20453;-80
2022/02/24 13:23:44;;;;;;;3.83;1.50;;;;;;;;;;5082046;28;20461;-79
2022/02/24 13:26:12;;;;;;;4.47;1.57;;;;;;;;;;5066210;28;20489;-80
2022/02/24 13:28:40;;;;;;;5.10;1.43;;;;;;;;;;5059796;28;20493;-80
2022/02/24 13:31:08;;;;;;;5.00;1.43;;;;;;;;;;5061243;28;20448;-80
2022/02/24 13:33:38;;;;;;;6.50;1.63;;;;;;;;;;5064064;28;20497;-78
2022/02/24 13:36:05;;;;;;;6.83;1.60;;;;;;;;;;5067358;28;20545;-80
2022/02/24 13:38:35;;;;;;;6.03;1.40;;;;;;;;;;5066164;28;21007;-80
2022/02/24 13:41:02;;;;;;;3.43;1.07;;;;;;;;;;5065994;28;20460;-80
2022/02/24 13:43:29;;;;;;;3.80;1.50;;;;;;;;;;5064452;28;21139;-80
2022/02/24 13:45:58;;;;;;;30.80;17.37;;;;;;;;;;5082882;28;20458;-80
2022/02/24 13:48:26;;;;;;;6.70;1.43;;;;;;;;;;5067873;28;20525;-80
2022/02/24 13:50:56;;;;;;;8.07;1.13;;;;;;;;;;5087396;28;20539;-81
2022/02/24 13:53:24;;;;;;;4.07;1.30;;;;;;;;;;5088060;28;20541;-80
2022/02/24 13:55:52;;;;;;;5.47;1.20;;;;;;;;;;5081576;28;20463;-80
2022/02/24 13:58:19;;;;;;;4.20;1.50;;;;;;;;;;5089914;28;20458;-81
2022/02/24 14:00:47;;;;;;;3.00;0.93;;;;;;;;;;5073734;28;20436;-81
2022/02/24 14:03:14;;;;;;;4.27;1.07;;;;;;;;;;5066289;28;20464;-81
2022/02/24 14:05:41;;;;;;;3.10;1.00;;;;;;;;;;5084171;28;20459;-81
2022/02/24 14:08:10;;;;;;;6.53;1.33;;;;;;;;;;5087933;28;20574;-80
2022/02/24 14:10:37;;;;;;;2.60;1.10;;;;;;;;;;5077628;28;20527;-81
2022/02/24 14:13:04;;;;;;;4.57;1.27;;;;;;;;;;5075032;28;20467;-81
2022/02/24 14:15:32;;;;;;;2.97;1.00;;;;;;;;;;5088955;28;20515;-80
2022/02/24 14:17:59;;;;;;;2.63;1.00;;;;;;;;;;5096416;28;20506;-78
2022/02/24 14:20:28;;;;;;;3.83;1.10;;;;;;;;;;5082344;28;20490;-80
2022/02/24 14:22:56;;;;;;;5.03;1.67;;;;;;;;;;5077137;28;20455;-81
2022/02/24 14:25:24;;;;;;;5.93;1.17;;;;;;;;;;5083880;28;20453;-82
2022/02/24 14:27:51;;;;;;;4.70;1.00;;;;;;;;;;5074755;28;20482;-81
2022/02/24 14:30:18;;;;;;;5.13;1.17;;;;;;;;;;5085850;28;20469;-79
2022/02/24 14:32:46;;;;;;;4.20;1.10;;;;;;;;;;5079042;28;20424;-80
2022/02/24 14:35:13;;;;;;;3.93;0.90;;;;;;;;;;5084583;28;20468;-80
2022/02/24 14:37:40;;;;;;;4.90;1.00;;;;;;;;;;5077989;28;20470;-80
2022/02/24 14:40:08;;;;;;;2.00;1.00;;;;;;;;;;5084095;28;20508;-79
2022/02/24 14:42:37;;;;;;;3.93;1.10;;;;;;;;;;5081238;28;20504;-80
2022/02/24 14:45:04;;;;;;;3.00;1.20;;;;;;;;;;5080841;28;20464;-80
2022/02/24 14:47:31;;;;;;;3.77;1.27;;;;;;;;;;5080848;28;20471;-80
2022/02/24 14:49:58;;;;;;;2.50;1.13;;;;;;;;;;5076625;28;20480;-79
2022/02/24 14:52:25;;;;;;;3.70;1.40;;;;;;;;;;5077551;28;20492;-80
2022/02/24 14:54:52;;;;;;;4.90;1.00;;;;;;;;;;5075190;28;20499;-81
2022/02/24 14:57:21;;;;;;;3.83;1.37;;;;;;;;;;5075684;28;20444;-79
2022/02/24 14:59:50;;;;;;;2.63;1.00;;;;;;;;;;5073555;28;20486;-80